Time;durP1;ratioP1;P1;durP2;ratioP2;P2;SDS_P1;SDS_P2;PMS_P1;PMS_P2;Temp;Humidity;BMP_temperature;BMP_pressure;BME280_temperature;BME280_humidity;BME280_pressure;Samples;Min_cycle;Max_cycle;Signal;HPM_P1;HPM_P2
2023/08/10 00:01:51;;;;;;;1.08;1.08;;;;;;;14.22;93.17;102155.47;5063523;28;20308;-73
2023/08/10 00:04:16;;;;;;;2.10;1.35;;;;;;;14.20;93.19;102150.25;5063726;28;20328;-73
2023/08/10 00:06:42;;;;;;;3.72;1.33;;;;;;;14.20;93.36;102150.25;5063600;28;20064;-73
2023/08/10 00:09:08;;;;;;;1.05;0.95;;;;;;;14.21;93.61;102145.84;5063810;28;20043;-73
2023/08/10 00:11:34;;;;;;;1.15;1.05;;;;;;;14.21;93.49;102148.50;5044848;28;20367;-73
2023/08/10 00:14:00;;;;;;;1.08;0.90;;;;;;;14.21;93.57;102153.75;5063406;28;20024;-73
2023/08/10 00:16:25;;;;;;;2.42;1.63;;;;;;;14.20;93.73;102149.38;5063032;28;20033;-73
2023/08/10 00:18:51;;;;;;;4.05;1.70;;;;;;;14.20;93.83;102149.38;5063199;28;20151;-73
2023/08/10 00:21:16;;;;;;;1.17;1.08;;;;;;;14.20;94.33;102149.38;5062481;28;20100;-73
2023/08/10 00:23:41;;;;;;;1.48;1.38;;;;;;;14.20;94.32;102152.03;5062733;28;20036;-73
2023/08/10 00:26:08;;;;;;;1.17;1.10;;;;;;;14.20;94.47;102157.28;5063492;28;20025;-73
2023/08/10 00:28:33;;;;;;;2.03;1.20;;;;;;;14.20;94.33;102152.88;5062720;28;20025;-73
2023/08/10 00:30:59;;;;;;;1.90;1.17;;;;;;;14.21;94.47;102145.84;5063053;28;20397;-73
2023/08/10 00:33:24;;;;;;;4.00;1.10;;;;;;;14.20;94.50;102144.13;5062698;28;20047;-73
2023/08/10 00:35:50;;;;;;;3.15;1.30;;;;;;;14.20;94.59;102149.38;5062980;28;20034;-73
2023/08/10 00:38:15;;;;;;;1.45;1.30;;;;;;;14.20;95.02;102146.75;5044926;28;20040;-73
2023/08/10 00:40:41;;;;;;;3.28;1.40;;;;;;;14.21;95.16;102148.50;5044001;28;20024;-73
2023/08/10 00:43:07;;;;;;;1.77;1.30;;;;;;;14.20;94.92;102138.84;5062416;28;20235;-73
2023/08/10 00:45:32;;;;;;;1.67;1.20;;;;;;;14.19;95.11;102147.69;5044289;28;20040;-73
2023/08/10 00:47:58;;;;;;;1.67;1.23;;;;;;;14.20;95.20;102150.25;5063213;28;20080;-73
2023/08/10 00:50:24;;;;;;;2.28;1.13;;;;;;;14.20;95.33;102146.75;5044228;28;20055;-73
2023/08/10 00:52:50;;;;;;;1.40;1.30;;;;;;;14.20;95.27;102149.38;5062996;28;20048;-73
2023/08/10 00:55:16;;;;;;;1.60;1.50;;;;;;;14.20;95.50;102149.38;5062011;28;20043;-73
2023/08/10 00:57:41;;;;;;;2.00;1.27;;;;;;;14.20;95.44;102144.13;5044194;28;20091;-73
2023/08/10 01:00:10;;;;;;;1.20;1.10;;;;;;;14.20;95.63;102138.84;5061791;28;20035;-73
2023/08/10 01:05:11;;;;;;;1.30;1.20;;;;;;;14.19;95.65;102150.31;4828977;22;19916;-75
2023/08/10 01:07:42;;;;;;;1.38;1.27;;;;;;;14.17;95.92;102145.09;5036521;28;20037;-75
2023/08/10 01:10:31;;;;;;;1.80;1.70;;;;;;;14.16;96.19;102146.00;5035759;28;20045;-75
2023/08/10 01:13:04;;;;;;;1.40;1.30;;;;;;;14.16;95.87;102142.50;5023009;28;20119;-75
2023/08/10 01:15:52;;;;;;;2.05;1.48;;;;;;;14.16;96.23;102150.41;5035477;28;20366;-75
2023/08/10 01:18:22;;;;;;;1.33;1.23;;;;;;;14.15;96.52;102151.31;5035472;28;20080;-75
2023/08/10 01:20:48;;;;;;;3.00;1.67;;;;;;;14.14;96.48;102139.94;5035961;28;20044;-75
2023/08/10 01:23:22;;;;;;;2.00;1.70;;;;;;;14.14;96.59;102147.84;5035730;28;20319;-75
2023/08/10 01:25:48;;;;;;;2.20;1.67;;;;;;;14.14;96.70;102146.97;5035885;28;20041;-75
2023/08/10 01:28:14;;;;;;;1.58;1.40;;;;;;;14.14;96.93;102139.94;5035732;28;20223;-75
2023/08/10 01:30:41;;;;;;;2.60;1.70;;;;;;;14.13;96.93;102140.81;5035208;28;20033;-75
2023/08/10 01:33:08;;;;;;;1.80;1.70;;;;;;;14.14;96.74;102139.06;5035536;28;20072;-75
2023/08/10 01:35:35;;;;;;;1.48;1.38;;;;;;;14.14;96.69;102139.94;5035075;28;20382;-75
2023/08/10 01:38:00;;;;;;;2.78;1.73;;;;;;;14.13;96.87;102132.06;5035644;28;20048;-75
2023/08/10 01:40:26;;;;;;;2.95;1.75;;;;;;;14.13;96.92;102132.94;5035069;28;20327;-75
2023/08/10 01:42:51;;;;;;;1.40;1.30;;;;;;;14.12;97.10;102133.84;5017914;28;20331;-75
2023/08/10 01:45:17;;;;;;;2.13;1.35;;;;;;;14.11;97.08;102136.53;5034963;28;20224;-75
2023/08/10 01:48:00;;;;;;;5.50;1.95;;;;;;;14.10;97.17;102132.16;5035873;28;20215;-75
2023/08/10 01:50:29;;;;;;;1.30;1.20;;;;;;;14.09;96.98;102135.75;5035325;28;20033;-75
2023/08/10 01:52:59;;;;;;;2.03;1.48;;;;;;;14.08;97.04;102129.63;5036038;28;20033;-75
2023/08/10 01:55:25;;;;;;;1.88;1.52;;;;;;;14.08;97.17;102139.28;5034880;28;20040;-75
2023/08/10 01:57:51;;;;;;;1.90;1.55;;;;;;;14.07;97.19;102143.69;5035527;28;20037;-75
2023/08/10 02:00:16;;;;;;;4.38;1.92;;;;;;;14.06;97.26;102135.84;5034821;28;20046;-75
2023/08/10 02:02:42;;;;;;;1.40;1.30;;;;;;;14.06;97.04;102141.09;5035693;28;20052;-75
2023/08/10 02:05:08;;;;;;;2.75;1.70;;;;;;;14.05;97.28;102142.03;5035067;28;20053;-75
2023/08/10 02:07:33;;;;;;;1.58;1.48;;;;;;;14.04;97.24;102137.66;5034979;28;20099;-75
2023/08/10 02:09:59;;;;;;;3.10;1.40;;;;;;;14.03;97.26;102142.09;5035429;28;20036;-75
2023/08/10 02:12:24;;;;;;;1.85;1.70;;;;;;;14.01;97.30;102142.13;5037797;28;20052;-75
2023/08/10 02:14:50;;;;;;;1.95;1.85;;;;;;;14.01;97.21;102143.91;5039297;28;20092;-75
2023/08/10 02:17:16;;;;;;;4.80;1.60;;;;;;;13.99;97.52;102141.31;5039647;28;20026;-75
2023/08/10 02:19:41;;;;;;;2.20;1.77;;;;;;;13.98;97.50;102144.00;5039283;28;20044;-75
2023/08/10 02:22:07;;;;;;;2.75;1.77;;;;;;;13.97;97.37;102145.78;5038937;28;20220;-75
2023/08/10 02:24:32;;;;;;;2.53;1.77;;;;;;;13.96;97.66;102146.69;5038698;28;20040;-75
2023/08/10 02:26:58;;;;;;;2.08;1.92;;;;;;;13.95;97.80;102144.09;5039413;28;20287;-75
2023/08/10 02:29:23;;;;;;;2.25;1.85;;;;;;;13.94;97.48;102142.41;5038389;28;20237;-75
2023/08/10 02:31:49;;;;;;;1.60;1.50;;;;;;;13.92;97.46;102139.81;5039068;28;20082;-75
2023/08/10 02:34:14;;;;;;;1.98;1.73;;;;;;;13.91;97.81;102140.72;5038791;28;20355;-75
2023/08/10 02:36:39;;;;;;;1.70;1.60;;;;;;;13.90;97.57;102138.13;5021749;28;20038;-75
2023/08/10 02:39:05;;;;;;;1.77;1.63;;;;;;;13.90;97.90;102140.75;5019033;28;20367;-75
2023/08/10 02:41:31;;;;;;;3.72;1.77;;;;;;;13.88;97.62;102146.09;5036030;28;20037;-75
2023/08/10 02:43:57;;;;;;;2.40;1.63;;;;;;;13.88;97.70;102145.22;5039333;28;20033;-76
2023/08/10 02:46:22;;;;;;;3.55;1.80;;;;;;;13.86;98.27;102145.31;5038151;28;20108;-76
2023/08/10 02:48:47;;;;;;;1.77;1.48;;;;;;;13.85;98.40;102146.19;5038763;28;20028;-76
2023/08/10 02:51:13;;;;;;;2.85;1.70;;;;;;;13.85;98.55;102146.19;5038550;28;20362;-76
2023/08/10 02:53:38;;;;;;;1.67;1.55;;;;;;;13.85;98.50;102156.72;5038352;28;20025;-76
2023/08/10 02:56:04;;;;;;;2.45;1.58;;;;;;;13.85;98.55;102162.00;5038409;28;20453;-75
2023/08/10 02:58:29;;;;;;;2.75;1.60;;;;;;;13.83;98.36;102167.31;5038434;28;20238;-75
2023/08/10 03:00:55;;;;;;;2.28;1.98;;;;;;;13.83;98.40;102164.69;5038652;28;20041;-75
2023/08/10 03:03:21;;;;;;;2.30;1.67;;;;;;;13.84;98.54;102162.91;5037912;28;20053;-75
2023/08/10 03:05:47;;;;;;;1.83;1.58;;;;;;;13.82;98.79;102156.81;5038414;28;20044;-75
2023/08/10 03:08:12;;;;;;;1.65;1.55;;;;;;;13.83;98.98;102154.16;5038085;28;20025;-75
2023/08/10 03:10:37;;;;;;;1.85;1.75;;;;;;;13.83;98.89;102155.94;5037927;28;20034;-75
2023/08/10 03:13:04;;;;;;;1.52;1.42;;;;;;;13.83;98.75;102155.94;5038581;28;20033;-75
2023/08/10 03:15:30;;;;;;;2.22;1.65;;;;;;;13.81;98.87;102150.72;5037740;28;20091;-75
2023/08/10 03:17:55;;;;;;;1.60;1.50;;;;;;;13.82;98.73;102143.66;5038652;28;20347;-75
2023/08/10 03:20:21;;;;;;;1.67;1.58;;;;;;;13.82;98.48;102151.56;5037496;28;20091;-75
2023/08/10 03:22:47;;;;;;;1.83;1.40;;;;;;;13.81;98.75;102141.94;5037370;28;20074;-75
2023/08/10 03:25:14;;;;;;;2.17;1.55;;;;;;;13.80;98.43;102150.75;5037898;28;20033;-75
2023/08/10 03:27:40;;;;;;;2.88;1.52;;;;;;;13.78;98.73;102148.16;5037578;28;20429;-75
2023/08/10 03:30:06;;;;;;;1.85;1.67;;;;;;;13.77;98.53;102146.47;5037690;28;20041;-75
2023/08/10 03:32:31;;;;;;;1.98;1.48;;;;;;;13.76;98.94;102151.78;5037614;28;20041;-75
2023/08/10 03:34:57;;;;;;;3.00;1.55;;;;;;;13.74;99.06;102154.44;5037950;28;20378;-75
2023/08/10 03:37:22;;;;;;;3.65;1.77;;;;;;;13.73;98.91;102150.09;5037437;28;20132;-75
2023/08/10 03:39:47;;;;;;;2.33;1.50;;;;;;;13.73;99.20;102152.72;5037928;28;20041;-75
2023/08/10 03:42:13;;;;;;;1.80;1.70;;;;;;;13.71;99.11;102143.16;5037683;28;20096;-75
2023/08/10 03:44:38;;;;;;;1.60;1.50;;;;;;;13.71;99.40;102140.53;5037398;28;20413;-75
2023/08/10 03:47:04;;;;;;;1.73;1.63;;;;;;;13.70;99.41;102142.31;5037687;28;20103;-75
2023/08/10 03:49:29;;;;;;;1.90;1.65;;;;;;;13.69;99.17;102148.47;5037306;28;20259;-75
2023/08/10 03:51:55;;;;;;;1.85;1.75;;;;;;;13.69;99.62;102147.63;5037567;28;20029;-75
2023/08/10 03:54:20;;;;;;;1.73;1.63;;;;;;;13.69;99.06;102147.63;5036918;28;20387;-75
2023/08/10 03:56:45;;;;;;;2.08;1.77;;;;;;;13.68;99.42;102154.66;5037415;28;20107;-75
2023/08/10 03:59:11;;;;;;;3.88;1.65;;;;;;;13.67;99.23;102142.41;5037126;28;20045;-75
2023/08/10 04:01:37;;;;;;;1.70;1.60;;;;;;;13.66;99.59;102152.97;5036985;28;20029;-75
2023/08/10 04:04:03;;;;;;;4.38;1.98;;;;;;;13.66;99.58;102147.72;5037111;28;20041;-75
2023/08/10 04:06:28;;;;;;;3.72;1.75;;;;;;;13.66;99.58;102145.06;5037384;28;20053;-75
2023/08/10 04:08:55;;;;;;;2.17;1.90;;;;;;;13.65;99.76;102153.91;5037466;28;20079;-75
2023/08/10 04:11:20;;;;;;;1.70;1.60;;;;;;;13.65;99.65;102153.91;5036537;28;20037;-75
2023/08/10 04:13:46;;;;;;;1.70;1.60;;;;;;;13.67;99.80;102157.34;5037443;28;20362;-75
2023/08/10 04:16:12;;;;;;;3.58;1.80;;;;;;;13.66;100.00;102150.34;5036765;28;20046;-75
2023/08/10 04:18:37;;;;;;;1.67;1.58;;;;;;;13.66;99.79;102156.50;5036671;28;20045;-75
2023/08/10 04:21:02;;;;;;;2.88;2.35;;;;;;;13.66;100.00;102163.50;5037183;28;20105;-75
2023/08/10 04:23:28;;;;;;;1.80;1.70;;;;;;;13.66;99.96;102156.50;5036730;28;20041;-75
2023/08/10 04:25:53;;;;;;;3.20;1.92;;;;;;;13.67;100.00;102162.59;5036755;28;20318;-75
2023/08/10 04:28:19;;;;;;;2.97;1.70;;;;;;;13.67;100.00;102154.72;5036208;28;20037;-75
2023/08/10 04:30:44;;;;;;;2.13;1.98;;;;;;;13.66;100.00;102161.75;5036611;28;20113;-75
2023/08/10 04:33:09;;;;;;;2.50;1.80;;;;;;;13.66;100.00;102151.22;5036481;28;20041;-76
2023/08/10 04:35:35;;;;;;;2.13;1.98;;;;;;;13.68;100.00;102152.03;5035356;28;20033;-76
2023/08/10 04:38:00;;;;;;;3.10;2.10;;;;;;;13.69;100.00;102156.38;5036491;28;20029;-76
2023/08/10 04:40:26;;;;;;;3.05;2.22;;;;;;;13.69;100.00;102145.84;5035973;28;20041;-76
2023/08/10 04:42:51;;;;;;;2.75;1.80;;;;;;;13.70;100.00;102154.59;5036483;28;20371;-76
2023/08/10 04:45:17;;;;;;;2.70;2.13;;;;;;;13.70;100.00;102152.84;5036196;28;20044;-76
2023/08/10 04:47:42;;;;;;;2.25;2.05;;;;;;;13.71;100.00;102154.53;5036728;28;20217;-76
2023/08/10 04:50:09;;;;;;;2.70;2.05;;;;;;;13.73;100.00;102150.09;5036636;28;20371;-76
2023/08/10 04:52:34;;;;;;;2.40;2.20;;;;;;;13.74;100.00;102151.81;5018183;28;20025;-76
2023/08/10 04:55:00;;;;;;;2.45;2.20;;;;;;;13.75;100.00;102144.78;5018972;28;20051;-76
2023/08/10 04:57:26;;;;;;;2.30;2.10;;;;;;;13.76;100.00;102149.13;5035887;28;20071;-76
2023/08/10 04:59:52;;;;;;;5.35;2.50;;;;;;;13.77;100.00;102150.84;5036290;28;20043;-76
2023/08/10 05:02:17;;;;;;;2.30;2.10;;;;;;;13.77;100.00;102146.47;5035710;28;20246;-76
2023/08/10 05:04:43;;;;;;;2.30;1.98;;;;;;;13.78;100.00;102142.91;5036091;28;20053;-75
2023/08/10 05:07:08;;;;;;;3.25;2.30;;;;;;;13.80;100.00;102150.75;5036293;28;20220;-75
2023/08/10 05:09:34;;;;;;;5.15;2.88;;;;;;;13.80;100.00;102133.16;5035485;28;20029;-75
2023/08/10 05:11:59;;;;;;;2.38;2.17;;;;;;;13.82;100.00;102138.38;5018197;28;20056;-75
2023/08/10 05:14:24;;;;;;;2.72;2.22;;;;;;;13.83;100.00;102134.84;5035164;28;20036;-75
2023/08/10 05:16:53;;;;;;;2.00;1.80;;;;;;;13.84;100.00;102139.19;5036459;28;20045;-75
2023/08/10 05:19:18;;;;;;;2.47;1.95;;;;;;;13.85;100.00;102140.94;5035490;28;20109;-75
2023/08/10 05:21:44;;;;;;;5.28;2.40;;;;;;;13.86;99.97;102140.03;5035871;28;20088;-75
2023/08/10 05:24:09;;;;;;;3.60;2.63;;;;;;;13.88;99.87;102137.31;5036096;28;20104;-75
2023/08/10 05:26:35;;;;;;;3.85;2.10;;;;;;;13.89;99.79;102139.06;5035730;28;20344;-75
2023/08/10 05:29:00;;;;;;;2.33;2.13;;;;;;;13.91;99.78;102143.34;5035955;28;20049;-75
2023/08/10 05:31:25;;;;;;;3.38;2.35;;;;;;;13.93;99.80;102140.66;5035032;28;20045;-75
2023/08/10 05:33:51;;;;;;;2.55;2.35;;;;;;;13.94;99.67;102148.50;5035673;28;20033;-75
2023/08/10 05:36:16;;;;;;;4.10;2.95;;;;;;;13.96;100.00;102146.69;5035146;28;20052;-75
2023/08/10 05:38:42;;;;;;;3.13;2.83;;;;;;;13.97;99.73;102150.16;5035893;28;20132;-75
2023/08/10 05:41:07;;;;;;;2.70;2.50;;;;;;;13.98;99.85;102144.84;5035324;28;20225;-75
2023/08/10 05:43:32;;;;;;;3.53;2.40;;;;;;;14.00;100.00;102153.56;5035326;28;20071;-75
2023/08/10 05:45:58;;;;;;;2.50;2.30;;;;;;;14.01;99.64;102150.03;5035603;28;20026;-75
2023/08/10 05:48:23;;;;;;;3.50;2.65;;;;;;;14.02;99.75;102145.63;5034885;28;20340;-75
2023/08/10 05:50:49;;;;;;;3.95;3.10;;;;;;;14.05;100.00;102156.06;5035859;28;20048;-75
2023/08/10 05:53:14;;;;;;;3.30;3.00;;;;;;;14.07;99.95;102148.09;5035376;28;20096;-76
2023/08/10 05:55:39;;;;;;;4.22;3.92;;;;;;;14.08;100.00;102152.44;5035014;28;20056;-76
2023/08/10 05:58:05;;;;;;;3.70;3.40;;;;;;;14.11;100.00;102149.72;5017486;28;20037;-76
2023/08/10 06:00:31;;;;;;;3.50;3.30;;;;;;;14.13;100.00;102153.16;5035194;28;20041;-75
2023/08/10 06:02:56;;;;;;;3.92;3.38;;;;;;;14.15;100.00;102151.31;5035173;28;20056;-75
2023/08/10 06:05:22;;;;;;;4.05;3.65;;;;;;;14.16;100.00;102150.41;5034954;28;20236;-75
2023/08/10 06:07:48;;;;;;;3.28;3.03;;;;;;;14.18;100.00;102140.69;5035540;28;20313;-75
2023/08/10 06:10:18;;;;;;;3.70;3.10;;;;;;;14.19;100.00;102142.41;5035184;28;20209;-75
2023/08/10 06:12:44;;;;;;;4.15;3.50;;;;;;;14.21;100.00;102149.34;5035072;28;20029;-75
2023/08/10 06:15:10;;;;;;;4.82;3.72;;;;;;;14.24;100.00;102145.72;5035169;28;20025;-75
2023/08/10 06:17:39;;;;;;;4.40;3.50;;;;;;;14.26;100.00;102146.56;5034813;28;20025;-75
2023/08/10 06:20:16;;;;;;;3.80;3.50;;;;;;;14.28;100.00;102144.72;5035139;28;20045;-75
2023/08/10 06:22:43;;;;;;;3.75;3.33;;;;;;;14.30;100.00;102147.31;5035391;28;20275;-75
2023/08/10 06:25:10;;;;;;;5.00;3.45;;;;;;;14.32;100.00;102151.59;5034853;28;20064;-76
2023/08/10 06:27:35;;;;;;;4.30;3.90;;;;;;;14.34;100.00;102155.03;5034901;28;20040;-76
2023/08/10 06:30:02;;;;;;;3.60;3.30;;;;;;;14.35;100.00;102146.22;5035467;28;20033;-75
2023/08/10 06:32:28;;;;;;;3.97;3.58;;;;;;;14.38;100.00;102150.50;5034464;28;20125;-75
2023/08/10 06:34:56;;;;;;;3.28;2.97;;;;;;;14.39;100.00;102150.47;5034768;28;20320;-76
2023/08/10 06:37:22;;;;;;;3.92;3.53;;;;;;;14.41;100.00;102155.69;5034329;28;20244;-76
2023/08/10 06:39:48;;;;;;;4.30;3.38;;;;;;;14.43;100.00;102159.13;5035015;28;20346;-76
2023/08/10 06:42:14;;;;;;;3.50;3.20;;;;;;;14.45;100.00;102151.16;5034701;28;20037;-76
2023/08/10 06:44:39;;;;;;;5.60;3.13;;;;;;;14.47;100.00;102154.59;5034445;28;20041;-76
2023/08/10 06:47:05;;;;;;;3.45;3.15;;;;;;;14.47;100.00;102152.81;5017111;28;20256;-75
2023/08/10 06:49:30;;;;;;;4.53;3.70;;;;;;;14.48;100.00;102146.66;5034485;28;20097;-75
2023/08/10 06:51:55;;;;;;;4.82;3.75;;;;;;;14.51;100.00;102148.28;5034923;28;20295;-75
2023/08/10 06:54:21;;;;;;;3.55;3.20;;;;;;;14.51;100.00;102148.28;5034377;28;20238;-75
2023/08/10 06:56:46;;;;;;;4.38;3.08;;;;;;;14.53;100.00;102147.31;5034490;28;20096;-75
2023/08/10 06:59:12;;;;;;;8.52;3.47;;;;;;;14.55;100.00;102147.25;5037205;28;20048;-75
2023/08/10 07:01:38;;;;;;;3.03;2.72;;;;;;;14.57;100.00;102155.97;5038170;28;20038;-75
2023/08/10 07:04:04;;;;;;;3.55;3.00;;;;;;;14.59;100.00;102146.28;5038340;28;20088;-75
2023/08/10 07:06:30;;;;;;;3.35;3.05;;;;;;;14.61;100.00;102149.72;5037726;28;20079;-75
2023/08/10 07:08:55;;;;;;;4.75;2.97;;;;;;;14.63;100.00;102144.41;5038516;28;20378;-75
2023/08/10 07:11:21;;;;;;;2.67;2.47;;;;;;;14.65;100.00;102156.59;5037838;28;20037;-75
2023/08/10 07:13:46;;;;;;;4.05;3.00;;;;;;;14.66;100.00;102155.69;5038525;28;20045;-75
2023/08/10 07:16:12;;;;;;;3.17;2.78;;;;;;;14.68;100.00;102150.34;5038127;28;20029;-75
2023/08/10 07:18:38;;;;;;;3.00;2.80;;;;;;;14.70;99.94;102146.75;5037996;28;20040;-75
2023/08/10 07:21:04;;;;;;;4.40;2.63;;;;;;;14.72;99.64;102158.09;5038304;28;20033;-75
2023/08/10 07:23:30;;;;;;;6.97;3.30;;;;;;;14.74;99.53;102152.75;5037677;28;20037;-75
2023/08/10 07:25:56;;;;;;;2.72;2.53;;;;;;;14.75;99.18;102147.44;5038207;28;20096;-75
2023/08/10 07:28:23;;;;;;;9.18;2.88;;;;;;;14.79;99.55;102153.47;5037659;28;20320;-75
2023/08/10 07:30:53;;;;;;;2.75;2.55;;;;;;;14.81;99.69;102156.00;5037993;28;20048;-75
2023/08/10 07:33:19;;;;;;;4.15;3.50;;;;;;;14.82;99.48;102165.66;5037600;28;20033;-75
2023/08/10 07:35:45;;;;;;;4.68;3.28;;;;;;;14.85;99.76;102160.28;5037959;28;20045;-75
2023/08/10 07:38:14;;;;;;;5.55;2.30;;;;;;;14.87;99.23;102166.34;5037539;28;20053;-75
2023/08/10 07:40:40;;;;;;;4.97;2.40;;;;;;;14.88;99.14;102158.38;5037658;28;20034;-76
2023/08/10 07:43:05;;;;;;;2.97;2.38;;;;;;;14.91;99.29;102158.25;5038177;28;20403;-75
2023/08/10 07:45:31;;;;;;;3.00;2.72;;;;;;;14.94;99.46;102165.19;5037345;28;20281;-75
2023/08/10 07:47:57;;;;;;;3.03;2.60;;;;;;;14.95;99.30;102161.63;5037989;28;20075;-75
2023/08/10 07:50:22;;;;;;;3.13;2.72;;;;;;;14.97;99.29;102160.66;5019460;28;20060;-75
2023/08/10 07:52:47;;;;;;;3.38;2.22;;;;;;;15.00;98.81;102169.38;5037653;28;20308;-75
2023/08/10 07:55:13;;;;;;;2.42;2.22;;;;;;;15.01;99.16;102166.69;5037557;28;20030;-75
2023/08/10 07:57:39;;;;;;;2.65;1.98;;;;;;;15.04;99.00;102166.56;5037306;28;20167;-75
2023/08/10 08:00:06;;;;;;;2.90;2.70;;;;;;;15.08;98.82;102176.09;5037517;28;20042;-75
2023/08/10 08:02:33;;;;;;;4.15;2.47;;;;;;;15.09;98.60;102172.50;5036733;28;20042;-76
2023/08/10 08:04:58;;;;;;;2.47;2.28;;;;;;;15.11;98.24;102162.75;5037240;28;20246;-76
2023/08/10 08:07:25;;;;;;;5.60;2.95;;;;;;;15.13;98.33;102176.78;5037045;28;20287;-76
2023/08/10 08:09:52;;;;;;;2.63;2.42;;;;;;;15.14;97.95;102172.34;5019089;28;20037;-76
2023/08/10 08:12:17;;;;;;;3.05;2.33;;;;;;;15.17;97.59;102174.84;5036837;28;20263;-76
2023/08/10 08:14:43;;;;;;;3.08;2.80;;;;;;;15.19;97.58;102173.03;5037374;28;20033;-76
2023/08/10 08:17:09;;;;;;;3.13;2.33;;;;;;;15.21;97.71;102168.56;5036951;28;20034;-76
2023/08/10 08:19:36;;;;;;;3.38;3.08;;;;;;;15.24;97.64;102175.47;5037000;28;20034;-76
2023/08/10 08:22:02;;;;;;;4.28;2.90;;;;;;;15.26;97.29;102181.56;5036995;28;20055;-76
2023/08/10 08:24:28;;;;;;;3.50;2.55;;;;;;;15.28;97.19;102179.72;5036550;28;20272;-76
2023/08/10 08:26:53;;;;;;;2.80;2.60;;;;;;;15.30;97.30;102175.25;5037120;28;20052;-76
2023/08/10 08:29:19;;;;;;;3.47;3.20;;;;;;;15.32;97.03;102178.69;5036595;28;20037;-76
2023/08/10 08:31:44;;;;;;;5.85;3.25;;;;;;;15.34;97.11;102174.22;5036736;28;20355;-76
2023/08/10 08:34:10;;;;;;;3.50;3.30;;;;;;;15.36;96.92;102177.66;5018696;28;20029;-76
2023/08/10 08:36:35;;;;;;;2.80;2.60;;;;;;;15.39;96.68;102177.53;5036527;28;20758;-76
2023/08/10 08:39:01;;;;;;;3.50;2.70;;;;;;;15.40;96.48;102179.25;5036679;28;20115;-76
2023/08/10 08:41:30;;;;;;;3.00;2.58;;;;;;;15.43;96.23;102184.41;5036163;28;20069;-76
2023/08/10 08:43:56;;;;;;;3.03;2.83;;;;;;;15.44;96.18;102182.63;5036821;28;20037;-76
2023/08/10 08:46:28;;;;;;;2.78;2.58;;;;;;;15.47;96.05;102179.88;5035974;28;20044;-76
2023/08/10 08:48:54;;;;;;;6.35;2.67;;;;;;;15.48;95.77;102176.28;5036695;28;20067;-76
2023/08/10 08:51:19;;;;;;;2.80;2.50;;;;;;;15.50;95.68;102175.31;5036149;28;20029;-76
2023/08/10 08:53:45;;;;;;;2.78;2.58;;;;;;;15.52;95.35;102175.25;5036506;28;20048;-76
2023/08/10 08:56:11;;;;;;;2.58;2.38;;;;;;;15.53;95.64;102176.97;5036476;28;20037;-76
2023/08/10 08:58:37;;;;;;;3.03;2.67;;;;;;;15.55;95.68;102173.38;5035815;28;20033;-76
2023/08/10 09:01:03;;;;;;;4.63;2.78;;;;;;;15.57;95.34;102181.19;5036627;28;20041;-76
2023/08/10 09:03:29;;;;;;;4.25;2.83;;;;;;;15.59;95.18;102175.84;5035517;28;20043;-76
2023/08/10 09:05:54;;;;;;;3.00;2.80;;;;;;;15.61;95.31;102174.00;5036066;28;20210;-76
2023/08/10 09:08:21;;;;;;;3.13;2.53;;;;;;;15.62;95.17;102160.75;5035876;28;20096;-75
2023/08/10 09:10:47;;;;;;;2.83;2.58;;;;;;;15.64;95.24;102169.47;5036008;28;20033;-75
2023/08/10 09:13:17;;;;;;;3.20;2.58;;;;;;;15.67;95.09;102157.94;5035690;28;20358;-75
2023/08/10 09:15:42;;;;;;;2.95;2.45;;;;;;;15.69;95.15;102166.66;5035975;28;20324;-75
2023/08/10 09:18:08;;;;;;;2.30;2.10;;;;;;;15.71;95.20;102170.09;5035780;28;20055;-75
2023/08/10 09:20:34;;;;;;;2.38;2.17;;;;;;;15.74;95.28;102164.72;5035349;28;20029;-75
2023/08/10 09:23:00;;;;;;;1.98;1.88;;;;;;;15.78;95.33;102170.72;5035755;28;20304;-75
2023/08/10 09:25:26;;;;;;;3.42;1.92;;;;;;;15.80;95.30;102160.97;5035213;28;20090;-75
2023/08/10 09:27:52;;;;;;;2.10;1.90;;;;;;;15.82;95.19;102165.25;5018032;28;20021;-75
2023/08/10 09:30:20;;;;;;;2.95;1.98;;;;;;;15.85;95.25;102164.28;5035757;28;20324;-75
2023/08/10 09:32:46;;;;;;;1.95;1.85;;;;;;;15.87;95.03;102171.19;5035659;28;20037;-75
2023/08/10 09:35:14;;;;;;;2.40;2.20;;;;;;;15.90;94.88;102181.66;5035606;28;20076;-75
2023/08/10 09:37:40;;;;;;;2.35;2.15;;;;;;;15.92;94.71;102179.78;5035167;28;20039;-75
2023/08/10 09:40:07;;;;;;;2.05;1.63;;;;;;;15.95;94.60;102172.66;5035611;28;20477;-75
2023/08/10 09:42:33;;;;;;;2.75;2.05;;;;;;;15.97;94.50;102170.81;5001045;28;20340;-76
2023/08/10 09:45:00;;;;;;;6.55;1.88;;;;;;;16.00;94.56;102175.97;5035676;28;20220;-76
2023/08/10 09:47:26;;;;;;;3.97;2.42;;;;;;;16.02;94.78;102182.03;5034883;28;20033;-76
2023/08/10 09:50:00;;;;;;;2.42;2.13;;;;;;;16.03;94.67;102171.41;5035795;28;20073;-76
2023/08/10 09:52:26;;;;;;;1.98;1.88;;;;;;;16.07;94.73;102182.72;5034901;28;20068;-76
2023/08/10 09:54:53;;;;;;;2.08;1.90;;;;;;;16.09;94.57;102179.06;5017800;28;20033;-76
2023/08/10 09:57:20;;;;;;;2.17;1.88;;;;;;;16.12;94.58;102181.59;5034827;28;20097;-76
2023/08/10 09:59:46;;;;;;;2.47;2.10;;;;;;;16.15;94.96;102185.88;5035116;28;20040;-76
2023/08/10 10:02:12;;;;;;;2.63;2.00;;;;;;;16.19;94.83;102184.84;5034997;28;20128;-76
2023/08/10 10:04:42;;;;;;;5.20;2.38;;;;;;;16.22;94.59;102182.03;5034665;28;20364;-76
2023/08/10 10:07:09;;;;;;;3.88;2.00;;;;;;;16.24;94.72;102176.69;5035165;28;20045;-76
2023/08/10 10:09:37;;;;;;;2.38;2.13;;;;;;;16.28;94.60;102171.22;5034977;28;20335;-76
2023/08/10 10:12:06;;;;;;;2.07;1.97;;;;;;;16.31;94.56;102175.50;5035231;28;20305;-76
2023/08/10 10:14:32;;;;;;;2.70;2.15;;;;;;;16.34;94.63;102171.88;5034671;28;20303;-76
2023/08/10 10:16:59;;;;;;;2.67;2.47;;;;;;;16.38;94.44;102171.66;5035139;28;20041;-76
2023/08/10 10:19:26;;;;;;;2.85;2.65;;;;;;;16.42;94.51;102172.41;5034550;28;20104;-76
2023/08/10 10:21:51;;;;;;;3.00;2.55;;;;;;;16.45;94.53;102172.28;5035426;28;20041;-76
2023/08/10 10:24:20;;;;;;;3.85;2.42;;;;;;;16.49;94.57;102174.69;5034915;28;20044;-76
2023/08/10 10:27:13;;;;;;;3.45;3.15;;;;;;;16.54;94.42;102163.94;5035349;28;20037;-76
2023/08/10 10:29:46;;;;;;;4.25;2.60;;;;;;;16.58;94.22;102162.00;5030811;28;20045;-76
2023/08/10 10:32:15;;;;;;;2.75;2.40;;;;;;;16.62;94.27;102156.50;5034932;28;20037;-76
2023/08/10 10:34:42;;;;;;;3.45;2.33;;;;;;;16.67;94.46;102159.78;5037862;28;20029;-76
2023/08/10 10:37:26;;;;;;;2.15;1.80;;;;;;;16.72;94.52;102158.72;5039008;28;20041;-76
2023/08/10 10:39:52;;;;;;;2.10;1.90;;;;;;;16.78;94.28;102172.53;5039080;28;20095;-76
2023/08/10 10:42:18;;;;;;;2.28;2.08;;;;;;;16.82;94.00;102165.31;5038182;28;20312;-76
2023/08/10 10:45:03;;;;;;;2.33;1.90;;;;;;;16.86;93.79;102165.16;5039241;28;20245;-76
2023/08/10 10:47:39;;;;;;;2.72;1.75;;;;;;;16.92;93.28;102168.41;5038280;28;20335;-76
2023/08/10 10:50:18;;;;;;;1.70;1.60;;;;;;;16.96;93.19;102164.72;5038822;28;20075;-76
2023/08/10 10:52:56;;;;;;;1.75;1.65;;;;;;;16.99;92.82;102165.44;5038820;28;20248;-76
2023/08/10 10:55:23;;;;;;;2.15;1.90;;;;;;;17.03;92.61;102158.22;5038272;28;20082;-76
2023/08/10 10:57:50;;;;;;;1.83;1.73;;;;;;;17.06;92.10;102160.69;5038787;28;20426;-76
2023/08/10 11:00:20;;;;;;;2.25;2.05;;;;;;;17.11;92.24;102155.19;5038329;28;20240;-76
2023/08/10 11:02:47;;;;;;;1.98;1.70;;;;;;;17.16;92.10;102153.19;5038583;28;20040;-76
2023/08/10 11:05:14;;;;;;;2.08;1.80;;;;;;;17.19;91.75;102153.03;5038450;28;20044;-76
2023/08/10 11:07:43;;;;;;;2.67;1.60;;;;;;;17.23;91.67;102152.81;5038332;28;20287;-76
2023/08/10 11:10:10;;;;;;;1.98;1.88;;;;;;;17.30;91.55;102149.88;5038275;28;20033;-76
2023/08/10 11:12:39;;;;;;;3.13;1.80;;;;;;;17.34;91.47;102147.00;5038056;28;20117;-76
2023/08/10 11:15:07;;;;;;;1.80;1.40;;;;;;;17.38;91.46;102145.06;5038498;28;20430;-76
2023/08/10 11:17:32;;;;;;;2.97;2.17;;;;;;;17.43;91.51;102151.84;5037618;28;20212;-76
2023/08/10 11:19:58;;;;;;;1.58;1.48;;;;;;;17.48;91.24;102148.13;5038375;28;20359;-76
2023/08/10 11:22:23;;;;;;;1.67;1.58;;;;;;;17.51;91.11;102150.63;5037773;28;20342;-76
2023/08/10 11:24:49;;;;;;;2.00;1.80;;;;;;;17.53;90.82;102160.19;5038511;28;20033;-76